MSC Cordoba — A8OF8 — position and weather

sailwx.info

Track history (hours):
 
Tides and Currents Weather Stations Pressure Air Temp Water Temp Dewpoint Dewpoint Depression Visibility Wind Speed Wind Dir Waves Ship Positions

MSC Cordoba

Last reported at 2014-Nov-01 13:32 UTC. Time now 2014-Nov-01 14:06 UTC.
Position N 51°20' E 004°20'.

Length 274 m; draft 12.2 m.

Type: Ship (hazmat cat A). MMSI: 636091473.

Date/timePositionNaut miles runAvg speedWind from/ knotsBaromVisibWave heightAir tempDewpointWater temp
2014-Nov-01 13:32N 51°20' E 004°20'0 0.0
2014-Nov-01 12:32N 51°20' E 004°20'0 0.0
2014-Nov-01 11:31N 51°20' E 004°20'0 0.0
2014-Nov-01 08:24N 51°20' E 004°20'0 0.0
2014-Nov-01 07:05N 51°20' E 004°20'0 0.0
2014-Nov-01 06:29N 51°20' E 004°20'0 0.0
2014-Nov-01 05:29N 51°20' E 004°20'0 0.1
2014-Nov-01 04:26N 51°20' E 004°20'1 0.8
2014-Nov-01 03:33N 51°19' E 004°19'2 1.6
2014-Nov-01 02:33N 51°21' E 004°17'1 1.4
2014-Nov-01 01:33N 51°21' E 004°15'8 7.6
2014-Nov-01 00:33N 51°23' E 004°03'6 6.2
2014-Oct-31 23:34N 51°21' E 003°53'10 9.6
2014-Oct-31 22:34N 51°26' E 003°40'1110.8
2014-Oct-31 21:33N 51°25' E 003°23'1514.6
2014-Oct-31 20:33N 51°25' E 002°60'1414.3
2014-Oct-31 19:33N 51°38' E 003°11'8 8.3
2014-Oct-31 18:33N 51°46' E 003°14'3 3.2
2014-Oct-31 17:33N 51°49' E 003°17'3 3.4
2014-Oct-31 16:33N 51°51' E 003°20'10 9.7
2014-Oct-31 15:33N 52°01' E 003°20'2020.5
2014-Oct-31 14:33N 52°21' E 003°27'2020.3
2014-Oct-31 13:33N 52°41' E 003°35'2020.3
2014-Oct-31 12:34N 52°56' E 003°56'2019.8
2014-Oct-31 11:33N 53°09' E 004°23'1919.5
2014-Oct-31 10:33N 53°27' E 004°32'1919.6
2014-Oct-31 09:33N 53°45' E 004°44'2020.1
2014-Oct-31 08:33N 54°04' E 004°55'2020.6
2014-Oct-31 07:33N 54°23' E 005°11'26220.1
2014-Oct-30 18:33N 57°48' E 010°03'1525.8
2014-Oct-30 18:00N 57°48' E 010°30'614.1 340 / 101025.0 5.4 0.514.0 4.013.0
2014-Oct-30 17:33N 57°49' E 010°41'2121.0
2014-Oct-30 16:33N 57°35' E 011°10'2020.3
2014-Oct-30 15:33N 57°18' E 011°32'2321.5
2014-Oct-30 14:30N 56°57' E 011°47'1819.0
2014-Oct-30 13:33N 56°39' E 011°48'12813.8
2014-Oct-30 04:15N 54°31' E 011°26'1420.0
2014-Oct-30 03:33N 54°26' E 011°48'1616.0
2014-Oct-30 02:34N 54°32' E 012°14'9318.5
2014-Oct-29 21:33N 54°44' E 014°52'2120.8
2014-Oct-29 20:34N 54°52' E 015°25'12920.5
2014-Oct-29 14:17N 55°31' E 019°00'6 8.9
2014-Oct-29 13:33N 55°31' E 019°11'1817.7
2014-Oct-29 12:33N 55°35' E 019°42'2019.8
2014-Oct-29 11:32N 55°40' E 020°17'1914.7
2014-Oct-29 10:16N 55°44' E 020°49'10 9.0
2014-Oct-29 09:10N 55°43' E 021°06'3 1.0
2014-Oct-29 06:32N 55°41' E 021°09'0 0.0
2014-Oct-29 05:26N 55°41' E 021°09'0 0.0
2014-Oct-29 04:31N 55°41' E 021°09'0 0.0
2014-Oct-29 03:25N 55°41' E 021°09'0 0.0
2014-Oct-29 02:24N 55°41' E 021°09'0 0.0
2014-Oct-29 01:33N 55°41' E 021°09'0 0.0
2014-Oct-29 00:33N 55°41' E 021°09'0 0.0
2014-Oct-28 23:32N 55°41' E 021°09'0 0.0
2014-Oct-28 22:23N 55°41' E 021°09'0 0.0
2014-Oct-28 21:31N 55°41' E 021°09'0 0.0
2014-Oct-28 20:31N 55°41' E 021°09'0 0.0
2014-Oct-28 19:30N 55°41' E 021°09'0 0.0
2014-Oct-28 18:12N 55°41' E 021°09'0 0.0
2014-Oct-28 14:07N 55°41' E 021°09'0 0.0
2014-Oct-28 13:07N 55°41' E 021°09'0 0.0
2014-Oct-28 12:06N 55°41' E 021°09'0 0.0
2014-Oct-28 11:30N 55°41' E 021°09'0 0.0
2014-Oct-28 10:18N 55°41' E 021°09'0 0.0
2014-Oct-28 09:29N 55°41' E 021°09'70 5.4
2014-Oct-27 20:33N 55°05' E 019°22'1717.1
2014-Oct-27 19:34N 54°51' E 019°06'1818.3
2014-Oct-27 18:34N 54°34' E 018°52'1211.9
2014-Oct-27 17:33N 54°32' E 018°32'1 0.7
2014-Oct-27 16:31N 54°33' E 018°31'0 0.0
2014-Oct-27 15:30N 54°33' E 018°31'0 0.0
2014-Oct-27 14:33N 54°33' E 018°31'0 0.0
2014-Oct-27 13:32N 54°33' E 018°31'0 0.0
2014-Oct-27 12:29N 54°33' E 018°31'0 0.0
2014-Oct-27 11:33N 54°33' E 018°31'0 0.0
2014-Oct-27 10:28N 54°33' E 018°31'0 0.0
2014-Oct-27 09:28N 54°33' E 018°31'0 0.0
2014-Oct-27 08:33N 54°33' E 018°31'0 0.0
2014-Oct-27 07:33N 54°33' E 018°31'0 0.0
2014-Oct-27 06:32N 54°33' E 018°31'0 0.0
2014-Oct-27 05:32N 54°33' E 018°31'0 0.0
2014-Oct-27 04:31N 54°33' E 018°31'0 0.0
2014-Oct-27 03:31N 54°33' E 018°31'0 0.0
2014-Oct-27 02:31N 54°33' E 018°31'0 0.0
2014-Oct-27 01:30N 54°33' E 018°31'0 0.0
2014-Oct-27 00:30N 54°33' E 018°31'0 0.0
2014-Oct-26 23:29N 54°33' E 018°31'0 0.0
2014-Oct-26 22:29N 54°33' E 018°31'0 0.0
2014-Oct-26 21:31N 54°33' E 018°31'0 0.0
2014-Oct-26 20:28N 54°33' E 018°31'0 0.0
2014-Oct-26 19:31N 54°33' E 018°31'0 0.0
2014-Oct-26 18:33N 54°33' E 018°31'0 0.0
2014-Oct-26 17:33N 54°33' E 018°31'0 0.0
2014-Oct-26 16:32N 54°33' E 018°31'0 0.0
2014-Oct-26 15:32N 54°33' E 018°31'0 0.0
2014-Oct-26 14:31N 54°33' E 018°31'0 0.0
2014-Oct-26 13:31N 54°33' E 018°31'0 0.0
2014-Oct-26 12:31N 54°33' E 018°31'0 0.0
2014-Oct-26 11:33N 54°33' E 018°31'0 0.0
2014-Oct-26 10:33N 54°33' E 018°31'0 0.0
2014-Oct-26 09:32N 54°33' E 018°31'0 0.0
2014-Oct-26 08:29N 54°33' E 018°31'0 0.0
2014-Oct-26 07:28N 54°33' E 018°31'0 0.0
2014-Oct-26 06:31N 54°33' E 018°31'0 0.0
2014-Oct-26 05:33N 54°33' E 018°31'0 0.0
2014-Oct-26 04:33N 54°33' E 018°31'0 0.0
2014-Oct-26 03:33N 54°33' E 018°31'0 0.0
2014-Oct-26 02:32N 54°33' E 018°31'0 0.0
2014-Oct-26 01:32N 54°33' E 018°31'0 0.0
2014-Oct-26 00:31N 54°33' E 018°31'0 0.0
2014-Oct-25 23:31N 54°33' E 018°31'0 0.0
2014-Oct-25 22:33N 54°33' E 018°31'0 0.0
2014-Oct-25 21:33N 54°33' E 018°31'0 0.0
2014-Oct-25 20:33N 54°33' E 018°31'0 0.0
2014-Oct-25 19:32N 54°33' E 018°31'0 0.0
2014-Oct-25 18:32N 54°33' E 018°31'0 0.0
2014-Oct-25 17:31N 54°33' E 018°31'0 0.0
2014-Oct-25 16:31N 54°33' E 018°31'0 0.0
2014-Oct-25 15:33N 54°33' E 018°31'0 0.0
2014-Oct-25 14:33N 54°33' E 018°31'0 0.0
2014-Oct-25 13:33N 54°33' E 018°31'0 0.0
2014-Oct-25 12:33N 54°33' E 018°31'5 5.4
2014-Oct-25 11:33N 54°32' E 018°40'1312.9
2014-Oct-25 10:34N 54°41' E 018°57'1616.0
2014-Oct-25 09:34N 54°53' E 018°40'1817.6
2014-Oct-25 08:33N 55°00' E 018°11'2218.8
2014-Oct-25 07:23N 55°04' E 017°33'1619.0
2014-Oct-25 06:33N 55°06' E 017°06'2218.9
2014-Oct-25 05:23N 55°06' E 016°28'2519.5
2014-Oct-25 04:05N 54°56' E 015°47'1019.6
2014-Oct-25 03:33N 54°52' E 015°30'1919.5
2014-Oct-25 02:34N 54°44' E 015°00'3517.7
2014-Oct-25 00:34N 54°40' E 013°59'2718.7
2014-Oct-24 23:08N 54°45' E 013°14'1018.4
2014-Oct-24 22:33N 54°46' E 012°55'2317.4
2014-Oct-24 21:16N 54°37' E 012°20'1419.1
2014-Oct-24 20:33N 54°25' E 012°10'5116.5
2014-Oct-24 17:28N 54°43' E 010°47'4216.8
2014-Oct-24 15:00N 55°24' E 011°00'7814.3 190 / 261017.0 5.4 2.018.0 8.114.0
2014-Oct-24 09:32N 56°39' E 011°41'1616.0
2014-Oct-24 08:33N 56°54' E 011°47'1818.3
2014-Oct-24 07:33N 57°11' E 011°34'1818.1
2014-Oct-24 06:33N 57°28' E 011°24'1919.0
2014-Oct-24 05:33N 57°41' E 010°57'1918.8
2014-Oct-24 04:33N 57°53' E 010°31'2020.0
2014-Oct-24 03:33N 57°48' E 009°55'13018.6
2014-Oct-23 20:33N 56°05' E 007°29'1919.1
2014-Oct-23 19:33N 55°46' E 007°21'1919.0
2014-Oct-23 18:33N 55°27' E 007°20'1919.1
2014-Oct-23 17:33N 55°08' E 007°21'1919.2
2014-Oct-23 16:33N 54°49' E 007°23'1919.0
2014-Oct-23 15:33N 54°30' E 007°25'1919.3
2014-Oct-23 14:33N 54°11' E 007°30'3215.9
2014-Oct-23 12:34N 53°48' E 008°08'1615.6
2014-Oct-23 11:34N 53°38' E 008°28'4 3.9
2014-Oct-23 10:33N 53°35' E 008°32'0 0.0
2014-Oct-23 09:33N 53°35' E 008°32'0 0.0
2014-Oct-23 08:32N 53°35' E 008°32'0 0.0
2014-Oct-23 07:33N 53°35' E 008°32'0 0.0
2014-Oct-23 06:29N 53°35' E 008°32'0 0.0
2014-Oct-23 05:32N 53°35' E 008°32'0 0.0
2014-Oct-23 04:26N 53°35' E 008°32'0 0.0
2014-Oct-23 03:31N 53°35' E 008°32'0 0.0
2014-Oct-23 02:32N 53°35' E 008°32'0 0.0
2014-Oct-23 01:33N 53°35' E 008°32'0 0.0
2014-Oct-23 00:33N 53°35' E 008°32'0 0.0
2014-Oct-22 23:32N 53°35' E 008°32'0 0.0
2014-Oct-22 22:32N 53°35' E 008°32'0 0.0
2014-Oct-22 21:29N 53°35' E 008°32'0 0.0
2014-Oct-22 20:31N 53°35' E 008°32'0 0.0
2014-Oct-22 19:33N 53°35' E 008°32'0 0.0
2014-Oct-22 18:33N 53°35' E 008°32'0 0.0
2014-Oct-22 17:32N 53°35' E 008°32'0 0.0
2014-Oct-22 16:32N 53°35' E 008°32'0 0.0
2014-Oct-22 15:33N 53°35' E 008°32'0 0.0
2014-Oct-22 14:33N 53°35' E 008°32'0 0.0
2014-Oct-22 13:33N 53°35' E 008°32'  
Track history (hours):
 
Tides and Currents Weather Stations Pressure Air Temp Water Temp Dewpoint Dewpoint Depression Visibility Wind Speed Wind Dir Waves Ship Positions

MSC Cordoba

Last reported at 2014-Nov-01 13:32 UTC. Time now 2014-Nov-01 14:06 UTC.
Position N 51°20' E 004°20'.

Length 274 m; draft 12.2 m.

Type: Ship (hazmat cat A). MMSI: 636091473.

Date/timePositionNaut miles runAvg speedWind from/ knotsBaromVisibWave heightAir tempDewpointWater temp
2014-Nov-01 13:32N 51°20' E 004°20'0 0.0
2014-Nov-01 12:32N 51°20' E 004°20'0 0.0
2014-Nov-01 11:31N 51°20' E 004°20'0 0.0
2014-Nov-01 08:24N 51°20' E 004°20'0 0.0
2014-Nov-01 07:05N 51°20' E 004°20'0 0.0
2014-Nov-01 06:29N 51°20' E 004°20'0 0.0
2014-Nov-01 05:29N 51°20' E 004°20'0 0.1
2014-Nov-01 04:26N 51°20' E 004°20'1 0.8
2014-Nov-01 03:33N 51°19' E 004°19'2 1.6
2014-Nov-01 02:33N 51°21' E 004°17'1 1.4
2014-Nov-01 01:33N 51°21' E 004°15'8 7.6
2014-Nov-01 00:33N 51°23' E 004°03'6 6.2
2014-Oct-31 23:34N 51°21' E 003°53'10 9.6
2014-Oct-31 22:34N 51°26' E 003°40'1110.8
2014-Oct-31 21:33N 51°25' E 003°23'1514.6
2014-Oct-31 20:33N 51°25' E 002°60'1414.3
2014-Oct-31 19:33N 51°38' E 003°11'8 8.3
2014-Oct-31 18:33N 51°46' E 003°14'3 3.2
2014-Oct-31 17:33N 51°49' E 003°17'3 3.4
2014-Oct-31 16:33N 51°51' E 003°20'10 9.7
2014-Oct-31 15:33N 52°01' E 003°20'2020.5
2014-Oct-31 14:33N 52°21' E 003°27'2020.3
2014-Oct-31 13:33N 52°41' E 003°35'2020.3
2014-Oct-31 12:34N 52°56' E 003°56'2019.8
2014-Oct-31 11:33N 53°09' E 004°23'1919.5
2014-Oct-31 10:33N 53°27' E 004°32'1919.6
2014-Oct-31 09:33N 53°45' E 004°44'2020.1
2014-Oct-31 08:33N 54°04' E 004°55'2020.6
2014-Oct-31 07:33N 54°23' E 005°11'26220.1
2014-Oct-30 18:33N 57°48' E 010°03'1525.8
2014-Oct-30 18:00N 57°48' E 010°30'614.1 340 / 101025.0 5.4 0.514.0 4.013.0
2014-Oct-30 17:33N 57°49' E 010°41'2121.0
2014-Oct-30 16:33N 57°35' E 011°10'2020.3
2014-Oct-30 15:33N 57°18' E 011°32'2321.5
2014-Oct-30 14:30N 56°57' E 011°47'1819.0
2014-Oct-30 13:33N 56°39' E 011°48'12813.8
2014-Oct-30 04:15N 54°31' E 011°26'1420.0
2014-Oct-30 03:33N 54°26' E 011°48'1616.0
2014-Oct-30 02:34N 54°32' E 012°14'9318.5
2014-Oct-29 21:33N 54°44' E 014°52'2120.8
2014-Oct-29 20:34N 54°52' E 015°25'12920.5
2014-Oct-29 14:17N 55°31' E 019°00'6 8.9
2014-Oct-29 13:33N 55°31' E 019°11'1817.7
2014-Oct-29 12:33N 55°35' E 019°42'2019.8
2014-Oct-29 11:32N 55°40' E 020°17'1914.7
2014-Oct-29 10:16N 55°44' E 020°49'10 9.0
2014-Oct-29 09:10N 55°43' E 021°06'3 1.0
2014-Oct-29 06:32N 55°41' E 021°09'0 0.0
2014-Oct-29 05:26N 55°41' E 021°09'0 0.0
2014-Oct-29 04:31N 55°41' E 021°09'0 0.0
2014-Oct-29 03:25N 55°41' E 021°09'0 0.0
2014-Oct-29 02:24N 55°41' E 021°09'0 0.0
2014-Oct-29 01:33N 55°41' E 021°09'0 0.0
2014-Oct-29 00:33N 55°41' E 021°09'0 0.0
2014-Oct-28 23:32N 55°41' E 021°09'0 0.0
2014-Oct-28 22:23N 55°41' E 021°09'0 0.0
2014-Oct-28 21:31N 55°41' E 021°09'0 0.0
2014-Oct-28 20:31N 55°41' E 021°09'0 0.0
2014-Oct-28 19:30N 55°41' E 021°09'0 0.0
2014-Oct-28 18:12N 55°41' E 021°09'0 0.0
2014-Oct-28 14:07N 55°41' E 021°09'0 0.0
2014-Oct-28 13:07N 55°41' E 021°09'0 0.0
2014-Oct-28 12:06N 55°41' E 021°09'0 0.0
2014-Oct-28 11:30N 55°41' E 021°09'0 0.0
2014-Oct-28 10:18N 55°41' E 021°09'0 0.0
2014-Oct-28 09:29N 55°41' E 021°09'70 5.4
2014-Oct-27 20:33N 55°05' E 019°22'1717.1
2014-Oct-27 19:34N 54°51' E 019°06'1818.3
2014-Oct-27 18:34N 54°34' E 018°52'1211.9
2014-Oct-27 17:33N 54°32' E 018°32'1 0.7
2014-Oct-27 16:31N 54°33' E 018°31'0 0.0
2014-Oct-27 15:30N 54°33' E 018°31'0 0.0
2014-Oct-27 14:33N 54°33' E 018°31'0 0.0
2014-Oct-27 13:32N 54°33' E 018°31'0 0.0
2014-Oct-27 12:29N 54°33' E 018°31'0 0.0
2014-Oct-27 11:33N 54°33' E 018°31'0 0.0
2014-Oct-27 10:28N 54°33' E 018°31'0 0.0
2014-Oct-27 09:28N 54°33' E 018°31'0 0.0
2014-Oct-27 08:33N 54°33' E 018°31'0 0.0
2014-Oct-27 07:33N 54°33' E 018°31'0 0.0
2014-Oct-27 06:32N 54°33' E 018°31'0 0.0
2014-Oct-27 05:32N 54°33' E 018°31'0 0.0
2014-Oct-27 04:31N 54°33' E 018°31'0 0.0
2014-Oct-27 03:31N 54°33' E 018°31'0 0.0
2014-Oct-27 02:31N 54°33' E 018°31'0 0.0
2014-Oct-27 01:30N 54°33' E 018°31'0 0.0
2014-Oct-27 00:30N 54°33' E 018°31'0 0.0
2014-Oct-26 23:29N 54°33' E 018°31'0 0.0
2014-Oct-26 22:29N 54°33' E 018°31'0 0.0
2014-Oct-26 21:31N 54°33' E 018°31'0 0.0
2014-Oct-26 20:28N 54°33' E 018°31'0 0.0
2014-Oct-26 19:31N 54°33' E 018°31'0 0.0
2014-Oct-26 18:33N 54°33' E 018°31'0 0.0
2014-Oct-26 17:33N 54°33' E 018°31'0 0.0
2014-Oct-26 16:32N 54°33' E 018°31'0 0.0
2014-Oct-26 15:32N 54°33' E 018°31'0 0.0
2014-Oct-26 14:31N 54°33' E 018°31'0 0.0
2014-Oct-26 13:31N 54°33' E 018°31'0 0.0
2014-Oct-26 12:31N 54°33' E 018°31'0 0.0
2014-Oct-26 11:33N 54°33' E 018°31'0 0.0
2014-Oct-26 10:33N 54°33' E 018°31'0 0.0
2014-Oct-26 09:32N 54°33' E 018°31'0 0.0
2014-Oct-26 08:29N 54°33' E 018°31'0 0.0
2014-Oct-26 07:28N 54°33' E 018°31'0 0.0
2014-Oct-26 06:31N 54°33' E 018°31'0 0.0
2014-Oct-26 05:33N 54°33' E 018°31'0 0.0
2014-Oct-26 04:33N 54°33' E 018°31'0 0.0
2014-Oct-26 03:33N 54°33' E 018°31'0 0.0
2014-Oct-26 02:32N 54°33' E 018°31'0 0.0
2014-Oct-26 01:32N 54°33' E 018°31'0 0.0
2014-Oct-26 00:31N 54°33' E 018°31'0 0.0
2014-Oct-25 23:31N 54°33' E 018°31'0 0.0
2014-Oct-25 22:33N 54°33' E 018°31'0 0.0
2014-Oct-25 21:33N 54°33' E 018°31'0 0.0
2014-Oct-25 20:33N 54°33' E 018°31'0 0.0
2014-Oct-25 19:32N 54°33' E 018°31'0 0.0
2014-Oct-25 18:32N 54°33' E 018°31'0 0.0
2014-Oct-25 17:31N 54°33' E 018°31'0 0.0
2014-Oct-25 16:31N 54°33' E 018°31'0 0.0
2014-Oct-25 15:33N 54°33' E 018°31'0 0.0
2014-Oct-25 14:33N 54°33' E 018°31'0 0.0
2014-Oct-25 13:33N 54°33' E 018°31'0 0.0
2014-Oct-25 12:33N 54°33' E 018°31'5 5.4
2014-Oct-25 11:33N 54°32' E 018°40'1312.9
2014-Oct-25 10:34N 54°41' E 018°57'1616.0
2014-Oct-25 09:34N 54°53' E 018°40'1817.6
2014-Oct-25 08:33N 55°00' E 018°11'2218.8
2014-Oct-25 07:23N 55°04' E 017°33'1619.0
2014-Oct-25 06:33N 55°06' E 017°06'2218.9
2014-Oct-25 05:23N 55°06' E 016°28'2519.5
2014-Oct-25 04:05N 54°56' E 015°47'1019.6
2014-Oct-25 03:33N 54°52' E 015°30'1919.5
2014-Oct-25 02:34N 54°44' E 015°00'3517.7
2014-Oct-25 00:34N 54°40' E 013°59'2718.7
2014-Oct-24 23:08N 54°45' E 013°14'1018.4
2014-Oct-24 22:33N 54°46' E 012°55'2317.4
2014-Oct-24 21:16N 54°37' E 012°20'1419.1
2014-Oct-24 20:33N 54°25' E 012°10'5116.5
2014-Oct-24 17:28N 54°43' E 010°47'4216.8
2014-Oct-24 15:00N 55°24' E 011°00'7814.3 190 / 261017.0 5.4 2.018.0 8.114.0
2014-Oct-24 09:32N 56°39' E 011°41'1616.0
2014-Oct-24 08:33N 56°54' E 011°47'1818.3
2014-Oct-24 07:33N 57°11' E 011°34'1818.1
2014-Oct-24 06:33N 57°28' E 011°24'1919.0
2014-Oct-24 05:33N 57°41' E 010°57'1918.8
2014-Oct-24 04:33N 57°53' E 010°31'2020.0
2014-Oct-24 03:33N 57°48' E 009°55'13018.6
2014-Oct-23 20:33N 56°05' E 007°29'1919.1
2014-Oct-23 19:33N 55°46' E 007°21'1919.0
2014-Oct-23 18:33N 55°27' E 007°20'1919.1
2014-Oct-23 17:33N 55°08' E 007°21'1919.2
2014-Oct-23 16:33N 54°49' E 007°23'1919.0
2014-Oct-23 15:33N 54°30' E 007°25'1919.3
2014-Oct-23 14:33N 54°11' E 007°30'3215.9
2014-Oct-23 12:34N 53°48' E 008°08'1615.6
2014-Oct-23 11:34N 53°38' E 008°28'4 3.9
2014-Oct-23 10:33N 53°35' E 008°32'0 0.0
2014-Oct-23 09:33N 53°35' E 008°32'0 0.0
2014-Oct-23 08:32N 53°35' E 008°32'0 0.0
2014-Oct-23 07:33N 53°35' E 008°32'0 0.0
2014-Oct-23 06:29N 53°35' E 008°32'0 0.0
2014-Oct-23 05:32N 53°35' E 008°32'0 0.0
2014-Oct-23 04:26N 53°35' E 008°32'0 0.0
2014-Oct-23 03:31N 53°35' E 008°32'0 0.0
2014-Oct-23 02:32N 53°35' E 008°32'0 0.0
2014-Oct-23 01:33N 53°35' E 008°32'0 0.0
2014-Oct-23 00:33N 53°35' E 008°32'0 0.0
2014-Oct-22 23:32N 53°35' E 008°32'0 0.0
2014-Oct-22 22:32N 53°35' E 008°32'0 0.0
2014-Oct-22 21:29N 53°35' E 008°32'0 0.0
2014-Oct-22 20:31N 53°35' E 008°32'0 0.0
2014-Oct-22 19:33N 53°35' E 008°32'0 0.0
2014-Oct-22 18:33N 53°35' E 008°32'0 0.0
2014-Oct-22 17:32N 53°35' E 008°32'0 0.0
2014-Oct-22 16:32N 53°35' E 008°32'0 0.0
2014-Oct-22 15:33N 53°35' E 008°32'0 0.0
2014-Oct-22 14:33N 53°35' E 008°32'0 0.0
2014-Oct-22 13:33N 53°35' E 008°32'  

Dump ship's entire track history